Time;durP1;ratioP1;P1;durP2;ratioP2;P2;SDS_P1;SDS_P2;PMS_P1;PMS_P2;Temp;Humidity;BMP_temperature;BMP_pressure;BME280_temperature;BME280_humidity;BME280_pressure;Samples;Min_cycle;Max_cycle;Signal;HPM_P1;HPM_P2
2024/03/22 00:00:16;;;;;;;;;55.00;41.25;;;;;-143.90;78.45;75409.97;4914110;28;103933;-73
2024/03/22 00:02:41;;;;;;;;;48.75;41.00;;;;;-143.90;79.38;75399.63;4918284;28;103131;-73
2024/03/22 00:05:07;;;;;;;;;56.00;42.25;;;;;-143.90;80.14;75399.63;4922252;28;102090;-73
2024/03/22 00:07:33;;;;;;;;;56.25;43.00;;;;;-143.90;80.72;75403.78;4922077;28;101727;-73
2024/03/22 00:09:58;;;;;;;;;51.75;40.00;;;;;-143.90;80.89;75401.72;4918470;28;104383;-73
2024/03/22 00:12:25;;;;;;;;;50.25;40.25;;;;;-143.90;81.34;75401.72;4914133;28;101565;-73
2024/03/22 00:14:54;;;;;;;;;49.00;38.00;;;;;-143.90;81.88;75397.56;4923894;28;101562;-74
2024/03/22 00:17:20;;;;;;;;;51.75;39.25;;;;;-143.90;82.83;75418.25;4924031;28;102014;-73
2024/03/22 00:19:46;;;;;;;;;50.50;40.00;;;;;-143.90;83.96;75412.03;4905114;28;104092;-74
2024/03/22 00:22:12;;;;;;;;;37.75;32.00;;;;;-143.90;84.93;75416.19;4913314;28;103067;-73
2024/03/22 00:24:37;;;;;;;;;46.00;36.00;;;;;-143.90;85.53;75416.19;4928240;28;101851;-73
2024/03/22 00:27:03;;;;;;;;;24.75;17.25;;;;;-143.90;85.64;75420.31;4921779;28;101930;-73
2024/03/22 00:29:29;;;;;;;;;46.50;37.00;;;;;-143.90;86.38;75414.13;4927545;28;104148;-73
2024/03/22 00:31:54;;;;;;;;;41.00;36.00;;;;;-143.90;86.39;75416.19;4901328;28;103508;-72
2024/03/22 00:34:20;;;;;;;;;45.25;34.00;;;;;-143.90;86.00;75409.97;4913107;28;103085;-73
2024/03/22 00:36:46;;;;;;;;;45.75;38.25;;;;;-143.90;86.55;75414.13;4917994;28;103318;-72
2024/03/22 00:39:12;;;;;;;;;45.25;37.75;;;;;-143.90;86.13;75414.13;4919255;28;103929;-73
2024/03/22 00:41:38;;;;;;;;;42.75;35.00;;;;;-143.90;86.24;75412.03;4926196;28;102504;-72
2024/03/22 00:44:04;;;;;;;;;42.75;35.25;;;;;-143.90;86.43;75420.31;4918186;28;102820;-73
2024/03/22 00:46:29;;;;;;;;;39.50;35.00;;;;;-143.90;86.68;75414.13;4902444;28;101791;-73
2024/03/22 00:48:55;;;;;;;;;36.00;33.75;;;;;-143.90;86.71;75405.84;4918502;28;104116;-72
2024/03/22 00:51:20;;;;;;;;;38.00;31.50;;;;;-143.90;86.66;75412.03;4916946;28;101926;-72
2024/03/22 00:53:46;;;;;;;;;36.50;30.75;;;;;-143.90;87.04;75416.19;4908050;28;101557;-72
2024/03/22 00:56:12;;;;;;;;;34.50;30.00;;;;;-143.90;86.84;75414.13;4910854;28;106459;-72
2024/03/22 00:58:37;;;;;;;;;41.00;36.00;;;;;-143.90;87.45;75422.38;4923182;28;103949;-73
2024/03/22 01:01:03;;;;;;;;;38.00;35.50;;;;;-143.90;87.52;75424.44;4934648;28;101857;-73
2024/03/22 01:03:29;;;;;;;;;39.25;35.00;;;;;-143.90;87.24;75416.19;4940179;28;101645;-73
2024/03/22 01:05:55;;;;;;;;;46.50;38.50;;;;;-143.90;87.23;75420.31;4914635;28;101897;-72
2024/03/22 01:08:22;;;;;;;;;44.75;37.00;;;;;-143.90;87.06;75416.19;4907031;28;104058;-72
2024/03/22 01:10:47;;;;;;;;;57.25;42.50;;;;;-143.90;88.13;75426.50;4918920;28;102501;-73
2024/03/22 01:13:13;;;;;;;;;55.00;42.00;;;;;-143.90;88.24;75420.31;4922623;28;101658;-73
2024/03/22 01:15:39;;;;;;;;;10.75;4.00;;;;;-143.90;88.38;75416.19;4926570;28;101458;-73
2024/03/22 01:18:04;;;;;;;;;41.50;34.50;;;;;-143.90;88.71;75424.44;4918526;28;104076;-72
2024/03/22 01:20:30;;;;;;;;;51.25;40.25;;;;;-143.90;89.21;75432.72;4897483;28;101599;-72
2024/03/22 01:22:56;;;;;;;;;50.50;38.25;;;;;-143.90;88.66;75416.19;4918057;28;102168;-72
2024/03/22 01:25:22;;;;;;;;;47.25;39.25;;;;;-143.90;89.38;75426.50;4915555;28;102660;-73
2024/03/22 01:27:47;;;;;;;;;46.00;37.50;;;;;-143.90;89.89;75430.66;4934979;28;104427;-73
2024/03/22 01:30:13;;;;;;;;;47.50;36.25;;;;;-143.90;89.87;75422.38;4913634;28;101923;-72
2024/03/22 01:32:39;;;;;;;;;52.25;41.00;;;;;-143.90;92.00;75428.59;4934963;28;101830;-72
2024/03/22 01:35:04;;;;;;;;;53.25;40.25;;;;;-143.90;93.12;75428.59;4936733;28;103178;-71
2024/03/22 01:37:30;;;;;;;;;54.00;38.00;;;;;-143.90;94.30;75443.06;4916757;28;104342;-73
2024/03/22 01:39:56;;;;;;;;;53.25;41.75;;;;;-143.90;97.28;75445.13;4902579;28;102032;-72
2024/03/22 01:42:22;;;;;;;;;56.75;43.00;;;;;-143.90;98.44;75441.00;4924865;28;101880;-73
2024/03/22 01:44:49;;;;;;;;;52.00;42.25;;;;;-143.90;100.00;75447.19;4920966;28;101713;-73
2024/03/22 01:47:15;;;;;;;;;49.50;40.00;;;;;-143.90;100.00;75453.41;4899568;28;104460;-73
2024/03/22 01:49:41;;;;;;;;;53.75;39.25;;;;;-143.90;100.00;75453.41;4923534;28;104144;-73
2024/03/22 01:52:07;;;;;;;;;61.50;47.75;;;;;-143.90;100.00;75453.41;4914366;28;103315;-73
2024/03/22 01:54:33;;;;;;;;;61.00;47.00;;;;;-143.90;100.00;75457.53;4911689;28;104266;-73
2024/03/22 01:56:58;;;;;;;;;58.25;46.75;;;;;-143.90;100.00;75451.31;4920511;28;102852;-73
2024/03/22 01:59:25;;;;;;;;;62.25;47.75;;;;;-143.90;100.00;75451.31;4929004;28;101892;-72
2024/03/22 02:01:51;;;;;;;;;58.00;45.75;;;;;-143.90;100.00;75463.72;4919663;28;101613;-73
2024/03/22 02:04:17;;;;;;;;;60.00;47.25;;;;;-143.90;100.00;75459.59;4910204;28;102018;-73
2024/03/22 02:06:43;;;;;;;;;49.50;37.25;;;;;-143.90;100.00;75457.53;4913484;28;105471;-73
2024/03/22 02:09:09;;;;;;;;;69.25;50.75;;;;;-143.90;100.00;75463.72;4926092;28;101732;-73
2024/03/22 02:11:36;;;;;;;;;58.50;46.50;;;;;-143.90;100.00;75459.59;4894607;28;101661;-73
2024/03/22 02:14:01;;;;;;;;;60.75;47.25;;;;;-143.90;100.00;75457.53;4922604;28;104403;-73
2024/03/22 02:16:27;;;;;;;;;58.25;47.25;;;;;-143.90;100.00;75472.00;4913472;28;104099;-73
2024/03/22 02:18:53;;;;;;;;;61.00;48.75;;;;;-143.90;100.00;75486.47;4928991;28;101941;-73
2024/03/22 02:21:18;;;;;;;;;58.00;44.50;;;;;-143.90;100.00;75486.47;4928917;28;102376;-73
2024/03/22 02:23:44;;;;;;;;;52.75;43.75;;;;;-143.90;100.00;75494.75;4920482;28;101897;-74
2024/03/22 02:26:10;;;;;;;;;58.50;46.75;;;;;-143.90;100.00;75507.16;4919132;28;104170;-74
2024/03/22 02:28:36;;;;;;;;;58.75;42.50;;;;;-143.90;100.00;75509.22;4918866;28;101945;-74
2024/03/22 02:31:03;;;;;;;;;26.25;21.75;;;;;-143.90;100.00;75498.88;4924820;28;102029;-73
2024/03/22 02:33:29;;;;;;;;;63.25;45.50;;;;;-143.90;100.00;75507.16;4921425;28;101959;-72
2024/03/22 02:35:55;;;;;;;;;62.00;47.50;;;;;-143.90;100.00;75515.41;4923999;28;103137;-73
2024/03/22 02:38:20;;;;;;;;;57.50;43.00;;;;;-143.90;100.00;75515.41;4896794;28;103733;-73
2024/03/22 02:40:48;;;;;;;;;56.75;45.25;;;;;-143.90;100.00;75523.69;4922316;28;103513;-74
2024/03/22 02:43:14;;;;;;;;;58.25;46.00;;;;;-143.90;100.00;75525.75;4919058;28;101665;-73
2024/03/22 02:45:40;;;;;;;;;56.00;42.75;;;;;-143.90;100.00;75525.75;4926507;28;103898;-73
2024/03/22 02:48:06;;;;;;;;;57.50;43.50;;;;;-143.90;100.00;75536.09;4923732;28;101610;-73
2024/03/22 02:50:36;;;;;;;;;57.50;45.50;;;;;-143.90;100.00;75529.91;4916213;28;101956;-74
2024/03/22 02:53:03;;;;;;;;;56.00;43.25;;;;;-143.90;100.00;75531.97;4923935;28;104317;-73
2024/03/22 02:55:28;;;;;;;;;57.00;43.50;;;;;-143.90;100.00;75542.31;4921293;28;104206;-74
2024/03/22 02:57:57;;;;;;;;;55.00;42.50;;;;;-143.90;100.00;75540.22;4925266;28;101662;-74
2024/03/22 03:00:23;;;;;;;;;51.75;41.50;;;;;-143.90;100.00;75529.91;4909131;28;103186;-73
2024/03/22 03:02:50;;;;;;;;;47.50;38.50;;;;;-143.90;100.00;75542.31;4934778;28;103263;-74
2024/03/22 03:05:15;;;;;;;;;41.25;36.00;;;;;-143.90;100.00;75531.97;4907024;28;104197;-72
2024/03/22 03:07:41;;;;;;;;;51.50;38.50;;;;;-143.90;100.00;75540.22;4904242;28;103134;-73
2024/03/22 03:10:07;;;;;;;;;47.50;39.50;;;;;-143.90;100.00;75550.56;4921313;28;104103;-73
2024/03/22 03:12:33;;;;;;;;;41.75;35.00;;;;;-143.90;100.00;75548.50;4917162;28;103241;-73
2024/03/22 03:14:58;;;;;;;;;48.25;37.00;;;;;-143.90;100.00;75552.63;4920664;28;104114;-73
2024/03/22 03:17:24;;;;;;;;;43.75;34.75;;;;;-143.90;100.00;75558.84;4911082;28;101878;-73
2024/03/22 03:19:50;;;;;;;;;51.50;38.25;;;;;-143.90;100.00;75548.50;4922987;28;101501;-73
2024/03/22 03:22:15;;;;;;;;;38.50;33.00;;;;;-143.90;100.00;75562.97;4938617;28;101684;-73
2024/03/22 03:24:41;;;;;;;;;42.25;37.50;;;;;-143.90;100.00;75569.19;4901023;28;103898;-72
2024/03/22 03:27:07;;;;;;;;;50.75;39.75;;;;;-143.90;100.00;75567.13;4907383;28;101758;-72
2024/03/22 03:29:33;;;;;;;;;39.25;31.50;;;;;-143.90;100.00;75569.19;4911406;28;101588;-73
2024/03/22 03:31:58;;;;;;;;;52.00;40.00;;;;;-143.90;100.00;75581.59;4903104;28;101765;-73
2024/03/22 03:34:24;;;;;;;;;42.00;37.00;;;;;-143.90;100.00;75577.44;4916267;28;102491;-72
2024/03/22 03:36:50;;;;;;;;;47.75;40.75;;;;;-143.90;100.00;75581.59;4916691;28;103299;-74
2024/03/22 03:39:15;;;;;;;;;39.00;35.00;;;;;-143.90;100.00;75573.31;4920149;28;101802;-73
2024/03/22 03:41:41;;;;;;;;;47.00;36.25;;;;;-143.90;100.00;75579.53;4921624;28;101956;-73
2024/03/22 03:44:07;;;;;;;;;47.00;39.00;;;;;-143.90;100.00;75567.13;4922693;28;102505;-74
2024/03/22 03:46:33;;;;;;;;;56.00;42.25;;;;;-143.90;100.00;75569.19;4920223;28;101491;-72
2024/03/22 03:48:58;;;;;;;;;52.25;41.50;;;;;-143.90;100.00;75565.03;4917323;28;102062;-73
2024/03/22 03:51:24;;;;;;;;;47.50;39.00;;;;;-143.90;100.00;75560.91;4913283;28;101532;-73
2024/03/22 03:53:49;;;;;;;;;55.00;41.00;;;;;-143.90;100.00;75562.97;4918256;28;104192;-73
2024/03/22 03:56:15;;;;;;;;;58.00;42.00;;;;;-143.90;100.00;75565.03;4930321;28;101968;-73
2024/03/22 03:58:41;;;;;;;;;40.00;35.50;;;;;-143.90;100.00;75562.97;4903030;28;102009;-72
2024/03/22 04:01:09;;;;;;;;;44.75;36.75;;;;;-143.90;100.00;75565.03;4925192;28;102142;-73
2024/03/22 04:03:35;;;;;;;;;44.25;37.75;;;;;-143.90;100.00;75556.78;4916756;28;103714;-74
2024/03/22 04:06:01;;;;;;;;;50.00;40.50;;;;;-143.90;100.00;75579.53;4919121;28;103482;-73
2024/03/22 04:08:28;;;;;;;;;54.00;44.00;;;;;-143.90;100.00;75567.13;4912474;28;103566;-73
2024/03/22 04:10:57;;;;;;;;;54.75;39.75;;;;;-143.90;100.00;75569.19;4927515;28;101799;-73
2024/03/22 04:13:27;;;;;;;;;52.25;42.00;;;;;-143.90;100.00;75569.19;4902001;28;104153;-73
2024/03/22 04:15:53;;;;;;;;;53.50;41.25;;;;;-143.90;100.00;75577.44;4914249;28;101992;-73
2024/03/22 04:18:19;;;;;;;;;57.25;45.25;;;;;-143.90;100.00;75581.59;4917771;28;101879;-72
2024/03/22 04:20:55;;;;;;;;;49.75;40.75;;;;;-143.90;100.00;75577.44;4917703;28;102148;-73
2024/03/22 04:23:22;;;;;;;;;48.00;40.50;;;;;-143.90;100.00;75581.59;4905739;28;108606;-72
2024/03/22 04:25:59;;;;;;;;;50.25;40.50;;;;;-143.90;100.00;75571.25;4921416;28;102044;-73
2024/03/22 04:28:25;;;;;;;;;50.75;40.00;;;;;-143.90;100.00;75587.78;4913067;28;102082;-74
2024/03/22 04:31:08;;;;;;;;;52.00;39.25;;;;;-143.90;100.00;75581.59;4915274;28;106364;-71
2024/03/22 04:33:35;;;;;;;;;48.00;37.75;;;;;-143.90;100.00;75581.59;4912408;28;104190;-74
2024/03/22 04:36:01;;;;;;;;;53.25;43.50;;;;;-143.90;100.00;75587.78;4925960;28;103244;-73
2024/03/22 04:38:28;;;;;;;;;54.25;41.00;;;;;-143.90;100.00;75589.84;4913631;28;101915;-73
2024/03/22 04:40:54;;;;;;;;;41.75;36.25;;;;;-143.90;100.00;75594.00;4903913;28;102056;-73
2024/03/22 04:43:21;;;;;;;;;41.25;34.00;;;;;-143.90;100.00;75591.94;4892120;28;104473;-74
2024/03/22 04:45:47;;;;;;;;;45.50;37.75;;;;;-143.90;100.00;75594.00;4925813;28;102261;-73
2024/03/22 04:48:17;;;;;;;;;45.00;37.25;;;;;-143.90;100.00;75600.19;4918274;28;101845;-70
2024/03/22 04:50:43;;;;;;;;;53.25;40.50;;;;;-143.90;100.00;75606.41;4917524;28;102085;-73
2024/03/22 04:53:08;;;;;;;;;50.75;39.00;;;;;-143.90;100.00;75604.34;4900618;28;104076;-73
2024/03/22 04:55:34;;;;;;;;;40.50;37.00;;;;;-143.90;100.00;75591.94;4918212;28;102280;-73
2024/03/22 04:58:00;;;;;;;;;43.00;37.50;;;;;-143.90;100.00;75589.84;4909048;28;101998;-73
2024/03/22 05:00:26;;;;;;;;;37.25;34.00;;;;;-143.90;100.00;75594.00;4934543;28;102141;-72
2024/03/22 05:02:52;;;;;;;;;40.75;35.25;;;;;-143.90;100.00;75594.00;4922254;28;104163;-73
2024/03/22 05:05:18;;;;;;;;;59.50;46.50;;;;;-143.90;100.00;75608.47;4914203;28;101954;-73
2024/03/22 05:07:44;;;;;;;;;53.50;42.00;;;;;-143.90;100.00;75602.25;4918865;28;101877;-72
2024/03/22 05:10:09;;;;;;;;;52.00;40.50;;;;;-143.90;100.00;75589.84;4919011;28;105246;-73
2024/03/22 05:12:35;;;;;;;;;51.50;41.00;;;;;-143.90;100.00;75598.13;4916945;28;104170;-73
2024/03/22 05:15:03;;;;;;;;;49.25;40.00;;;;;-143.90;100.00;75600.19;4916878;28;101913;-72
2024/03/22 05:17:31;;;;;;;;;57.00;45.50;;;;;-143.90;100.00;75598.13;4917495;28;101608;-73
2024/03/22 05:19:58;;;;;;;;;64.33;49.00;;;;;-143.90;100.00;75602.25;4921652;28;101732;-73
2024/03/22 05:22:23;;;;;;;;;64.25;47.25;;;;;-143.90;100.00;75604.34;4924104;28;104225;-72
2024/03/22 05:24:49;;;;;;;;;60.25;46.75;;;;;-143.90;100.00;75602.25;4920034;28;103135;-72
2024/03/22 05:27:15;;;;;;;;;49.50;40.75;;;;;-143.90;100.00;75602.25;4897738;28;101635;-73
2024/03/22 05:29:40;;;;;;;;;52.50;42.50;;;;;-143.90;100.00;75614.66;4901221;28;101913;-74
2024/03/22 05:32:06;;;;;;;;;50.75;41.00;;;;;-143.90;100.00;75594.00;4916861;28;102668;-73
2024/03/22 05:34:32;;;;;;;;;55.00;41.50;;;;;-143.90;100.00;75600.19;4895986;28;101944;-73
2024/03/22 05:36:58;;;;;;;;;60.50;47.00;;;;;-143.90;100.00;75606.41;4915918;28;102648;-73
2024/03/22 05:39:24;;;;;;;;;54.00;40.25;;;;;-143.90;100.00;75594.00;4915749;28;101973;-73
2024/03/22 05:41:50;;;;;;;;;57.25;40.25;;;;;-143.90;100.00;75596.06;4904621;28;104437;-73
2024/03/22 05:44:15;;;;;;;;;57.50;44.00;;;;;-143.90;100.00;75583.66;4914426;28;102003;-74
2024/03/22 05:46:41;;;;;;;;;58.50;41.25;;;;;-143.90;100.00;75585.72;4919598;28;101798;-74
2024/03/22 05:49:07;;;;;;;;;58.25;47.00;;;;;-143.90;100.00;75579.53;4918612;28;102086;-73
2024/03/22 05:51:33;;;;;;;;;72.00;53.33;;;;;-143.90;100.00;75589.84;4900901;28;104026;-74
2024/03/22 05:53:59;;;;;;;;;76.00;56.33;;;;;-143.90;100.00;75589.84;4918566;28;101879;-73
2024/03/22 05:56:25;;;;;;;;;64.67;52.00;;;;;-143.90;100.00;75583.66;4914183;28;101655;-73
2024/03/22 05:58:50;;;;;;;;;61.25;47.75;;;;;-143.90;100.00;75589.84;4915121;28;106782;-73
2024/03/22 06:01:16;;;;;;;;;61.25;46.50;;;;;-143.90;100.00;75598.13;4903374;28;104150;-73
2024/03/22 06:03:42;;;;;;;;;56.50;44.50;;;;;-143.90;100.00;75602.25;4915317;28;103448;-73
2024/03/22 06:06:08;;;;;;;;;58.50;40.75;;;;;-143.90;100.00;75587.78;4914397;28;102844;-73
2024/03/22 06:08:39;;;;;;;;;52.00;39.75;;;;;-143.90;100.00;75587.78;4895432;28;101896;-73
2024/03/22 06:11:07;;;;;;;;;53.75;39.50;;;;;-143.90;100.00;75594.00;4915597;28;104085;-74
2024/03/22 06:13:34;;;;;;;;;54.75;38.75;;;;;-143.90;100.00;75589.84;4904810;28;101710;-73
2024/03/22 06:15:59;;;;;;;;;53.25;40.75;;;;;-143.90;100.00;75596.06;4898945;28;101932;-72
2024/03/22 06:18:25;;;;;;;;;39.00;32.75;;;;;-143.90;100.00;75602.25;4911941;28;102013;-73
2024/03/22 06:20:51;;;;;;;;;33.50;31.00;;;;;-143.90;100.00;75620.88;4920048;28;102361;-73
2024/03/22 06:23:16;;;;;;;;;35.50;29.75;;;;;-143.90;100.00;75620.88;4901130;28;101822;-73
2024/03/22 06:25:51;;;;;;;;;28.25;22.25;;;;;-143.90;100.00;75643.63;4922181;28;102434;-73
2024/03/22 06:28:16;;;;;;;;;22.50;20.25;;;;;-143.90;100.00;75627.06;4928657;28;101972;-72
2024/03/22 06:30:42;;;;;;;;;19.00;17.25;;;;;-143.90;100.00;75614.66;4911478;28;104299;-72
2024/03/22 06:33:08;;;;;;;;;19.75;17.50;;;;;-143.90;100.00;75622.94;4917138;28;101840;-73
2024/03/22 06:35:33;;;;;;;;;26.50;22.75;;;;;-143.90;100.00;75637.41;4921119;28;101834;-73
2024/03/22 06:38:02;;;;;;;;;30.00;24.25;;;;;-143.90;100.00;75660.16;4922148;28;101898;-73
2024/03/22 06:40:28;;;;;;;;;19.50;17.50;;;;;-143.90;100.00;75651.88;4910690;28;103994;-73
2024/03/22 06:42:54;;;;;;;;;26.50;20.50;;;;;-143.90;100.00;75660.16;4914711;28;101987;-73
2024/03/22 06:45:19;;;;;;;;;16.50;15.50;;;;;-143.90;100.00;75643.63;4916074;28;102474;-73
2024/03/22 06:47:45;;;;;;;;;25.25;21.50;;;;;-143.90;100.00;75649.81;4915745;28;101987;-73
2024/03/22 06:50:11;;;;;;;;;26.25;21.00;;;;;-143.90;100.00;75651.88;4912647;28;103910;-73
2024/03/22 06:52:37;;;;;;;;;28.25;21.00;;;;;-143.90;100.00;75639.47;4915996;28;101995;-72
2024/03/22 06:55:03;;;;;;;;;24.75;19.75;;;;;-143.90;100.00;75635.34;4907195;28;102014;-71
2024/03/22 06:57:29;;;;;;;;;24.50;20.50;;;;;-143.90;100.00;75643.63;4919451;28;101839;-73
2024/03/22 06:59:54;;;;;;;;;28.50;23.25;;;;;-143.90;100.00;75647.75;4917822;28;103949;-73
2024/03/22 07:02:20;;;;;;;;;31.00;25.25;;;;;-143.90;100.00;75656.03;4911761;28;103377;-74
2024/03/22 07:04:46;;;;;;;;;23.00;18.00;;;;;-143.90;100.00;75643.63;4900689;28;101927;-72
2024/03/22 07:07:12;;;;;;;;;23.00;19.50;;;;;-143.90;100.00;75627.06;4905829;28;103351;-73
2024/03/22 07:09:37;;;;;;;;;27.25;21.75;;;;;-143.90;100.00;75631.22;4934472;28;103929;-73
2024/03/22 07:12:03;;;;;;;;;29.25;20.50;;;;;-143.90;100.00;75622.94;4920342;28;101816;-73
2024/03/22 07:14:29;;;;;;;;;18.00;14.00;;;;;-143.90;100.00;75612.59;4904195;28;101745;-73
2024/03/22 07:16:55;;;;;;;;;26.00;18.00;;;;;-143.90;100.00;75610.53;4922826;28;102051;-73
2024/03/22 07:19:21;;;;;;;;;16.75;15.75;;;;;-143.90;100.00;75614.66;4921146;28;102429;-74
2024/03/22 07:21:47;;;;;;;;;19.50;15.50;;;;;-143.90;100.00;75618.81;4924784;28;102436;-73
2024/03/22 07:24:14;;;;;;;;;20.75;17.50;;;;;-143.90;100.00;75614.66;4903753;28;101668;-69
2024/03/22 07:26:39;;;;;;;;;28.00;20.25;;;;;-143.90;100.00;75629.13;4911077;28;101675;-74
2024/03/22 07:29:05;;;;;;;;;18.25;17.00;;;;;-143.90;100.00;75622.94;4923541;28;103917;-74
2024/03/22 07:31:31;;;;;;;;;28.00;18.00;;;;;-143.90;100.00;75629.13;4924595;28;101696;-73
2024/03/22 07:33:57;;;;;;;;;22.75;16.75;;;;;-143.90;100.00;75637.41;4921690;28;101783;-74
2024/03/22 07:36:22;;;;;;;;;22.00;20.75;;;;;-143.90;100.00;75627.06;4896242;28;104615;-73
2024/03/22 07:38:51;;;;;;;;;21.75;16.50;;;;;-143.90;100.00;75622.94;4942520;28;106950;-73
2024/03/22 07:41:16;;;;;;;;;21.25;17.00;;;;;-143.90;100.00;75610.53;4923731;28;102074;-72
2024/03/22 07:43:42;;;;;;;;;24.00;20.50;;;;;-143.90;100.00;75610.53;4895965;28;101961;-73
2024/03/22 07:46:07;;;;;;;;;16.25;14.25;;;;;-143.90;100.00;75606.41;4936670;28;102019;-73
2024/03/22 07:48:33;;;;;;;;;23.75;21.50;;;;;-143.90;100.00;75610.53;4916711;28;102759;-73
2024/03/22 07:50:59;;;;;;;;;22.50;17.25;;;;;-143.90;100.00;75600.19;4920514;28;101900;-73
2024/03/22 07:53:25;;;;;;;;;22.25;16.25;;;;;-143.90;100.00;75596.06;4919093;28;101688;-73
2024/03/22 07:55:51;;;;;;;;;18.25;16.75;;;;;-143.90;100.00;75589.84;4929808;28;102387;-73
2024/03/22 07:58:16;;;;;;;;;20.75;15.75;;;;;-143.90;100.00;75585.72;4915467;28;104814;-73
2024/03/22 08:00:42;;;;;;;;;23.00;22.00;;;;;-143.90;100.00;75575.38;4909089;28;104098;-73
2024/03/22 08:03:14;;;;;;;;;31.50;24.25;;;;;-143.90;100.00;75594.00;4914412;28;101889;-73
2024/03/22 08:05:40;;;;;;;;;34.75;31.25;;;;;-143.90;100.00;75606.41;4920690;28;102149;-74
2024/03/22 08:08:06;;;;;;;;;38.00;33.50;;;;;-143.90;100.00;75614.66;4928288;28;102357;-74
2024/03/22 08:10:32;;;;;;;;;37.25;32.00;;;;;-143.90;100.00;75610.53;4913436;28;102166;-73
2024/03/22 08:12:58;;;;;;;;;40.75;34.25;;;;;-143.90;100.00;75616.72;4899248;28;102072;-73
2024/03/22 08:15:24;;;;;;;;;34.75;29.50;;;;;-143.90;100.00;75600.19;4922164;28;101977;-73
2024/03/22 08:17:50;;;;;;;;;44.50;33.75;;;;;-143.90;100.00;75581.59;4929247;28;102559;-73
2024/03/22 08:20:16;;;;;;;;;42.00;35.00;;;;;-143.90;100.00;75587.78;4890457;28;101971;-72
2024/03/22 08:22:42;;;;;;;;;45.50;35.50;;;;;-143.90;100.00;75585.72;4919808;28;102117;-72
2024/03/22 08:25:07;;;;;;;;;41.00;37.00;;;;;-143.90;100.00;75602.25;4917918;28;102119;-73
2024/03/22 08:27:34;;;;;;;;;51.00;37.50;;;;;-143.90;100.00;75606.41;4925432;28;104274;-73
2024/03/22 08:30:00;;;;;;;;;45.25;35.00;;;;;-143.90;100.00;75606.41;4928730;28;101967;-73
2024/03/22 08:32:26;;;;;;;;;44.50;37.25;;;;;-143.90;100.00;75602.25;4914998;28;101680;-73
2024/03/22 08:34:51;;;;;;;;;47.25;35.75;;;;;-143.90;100.00;75614.66;4941667;28;102077;-74
2024/03/22 08:37:17;;;;;;;;;67.75;51.00;;;;;-143.90;100.00;75616.72;4924537;28;106541;-74
2024/03/22 08:39:43;;;;;;;;;58.75;44.00;;;;;-143.90;100.00;75598.13;4918561;28;101811;-73
2024/03/22 08:42:09;;;;;;;;;64.00;48.25;;;;;-143.90;100.00;75596.06;4918161;28;102044;-74
2024/03/22 08:44:35;;;;;;;;;62.50;45.00;;;;;-143.90;100.00;75573.31;4917083;28;101606;-73
2024/03/22 08:47:01;;;;;;;;;54.50;43.25;;;;;-143.90;100.00;75583.66;4916969;28;104109;-74
2024/03/22 08:52:55;;;;;;;;;59.50;44.75;;;;;-143.90;100.00;75583.66;4910254;28;102002;-72
2024/03/22 08:55:20;;;;;;;;;59.50;46.00;;;;;-143.90;100.00;75573.31;4910382;28;101947;-73
2024/03/22 08:57:46;;;;;;;;;62.00;45.25;;;;;-143.90;100.00;75585.72;4914738;28;102256;-72
2024/03/22 09:00:13;;;;;;;;;55.50;39.25;;;;;-143.90;100.00;75579.53;4914595;28;101523;-73
2024/03/22 09:02:38;;;;;;;;;54.75;39.00;;;;;-143.90;100.00;75573.31;4918090;28;101980;-72
2024/03/22 09:05:05;;;;;;;;;58.00;41.25;;;;;-143.90;100.00;75577.44;4914316;28;102479;-73
2024/03/22 09:07:31;;;;;;;;;61.25;47.00;;;;;-143.90;100.00;75583.66;4915640;28;104205;-73
2024/03/22 09:09:57;;;;;;;;;53.00;40.75;;;;;-143.90;100.00;75542.31;4941092;28;101999;-72
2024/03/22 09:12:23;;;;;;;;;66.50;49.25;;;;;-143.90;100.00;75575.38;4916895;28;102025;-73
2024/03/22 09:14:48;;;;;;;;;60.00;46.00;;;;;-143.90;100.00;75567.13;4909161;28;101902;-73
2024/03/22 09:17:17;;;;;;;;;62.50;46.25;;;;;-143.90;100.00;75577.44;4916125;28;102442;-74
2024/03/22 09:19:43;;;;;;;;;63.25;46.25;;;;;-143.90;100.00;75587.78;4912008;28;101979;-75
2024/03/22 09:22:09;;;;;;;;;57.50;44.00;;;;;-143.90;100.00;75581.59;4911905;28;101702;-73
2024/03/22 09:24:34;;;;;;;;;43.75;35.50;;;;;-143.90;100.00;75544.38;4915392;28;102324;-74
2024/03/22 09:27:00;;;;;;;;;52.50;39.50;;;;;-143.90;100.00;75536.09;4914057;28;104027;-73
2024/03/22 09:29:25;;;;;;;;;37.50;34.50;;;;;-143.90;100.00;75513.34;4921970;28;104145;-73
2024/03/22 09:31:51;;;;;;;;;45.75;39.50;;;;;-143.90;100.00;75503.03;4919179;28;101882;-73
2024/03/22 09:34:17;;;;;;;;;53.25;43.50;;;;;-143.90;100.00;75507.16;4912400;28;102751;-73
2024/03/22 09:36:42;;;;;;;;;58.25;39.00;;;;;-143.90;100.00;75480.28;4922120;28;104035;-73
2024/03/22 09:39:08;;;;;;;;;55.50;41.25;;;;;-143.90;100.00;75478.22;4919308;28;102457;-72
2024/03/22 09:41:43;;;;;;;;;52.00;41.50;;;;;-143.90;100.00;75472.00;4932562;28;101534;-73
2024/03/22 09:44:16;;;;;;;;;53.25;41.25;;;;;-143.90;100.00;75469.94;4930324;28;102180;-74
2024/03/22 09:46:42;;;;;;;;;58.25;42.00;;;;;-143.90;100.00;75503.03;4936509;28;103974;-73
2024/03/22 09:49:10;;;;;;;;;60.75;46.75;;;;;-143.90;100.00;75511.28;4921300;28;102547;-73
2024/03/22 09:51:37;;;;;;;;;52.25;41.00;;;;;-143.90;100.00;75494.75;4904731;28;102426;-73
2024/03/22 09:54:03;;;;;;;;;39.00;31.50;;;;;-143.90;100.00;75469.94;4898071;28;101848;-73
2024/03/22 09:56:30;;;;;;;;;36.00;29.25;;;;;-143.90;100.00;75455.47;4901005;28;104269;-72
2024/03/22 09:58:57;;;;;;;;;44.75;37.00;;;;;-143.90;100.00;75465.81;4902058;28;101892;-73
2024/03/22 10:01:24;;;;;;;;;43.00;36.75;;;;;-143.90;100.00;75457.53;4904777;28;101911;-73
2024/03/22 10:03:52;;;;;;;;;48.25;37.75;;;;;-143.90;100.00;75438.94;4918410;28;101980;-73
2024/03/22 10:06:18;;;;;;;;;49.00;38.00;;;;;-143.90;100.00;75438.94;4911269;28;104265;-73
2024/03/22 10:08:44;;;;;;;;;46.00;37.00;;;;;-143.90;100.00;75436.84;4902322;28;101580;-72
2024/03/22 10:11:11;;;;;;;;;35.25;32.00;;;;;-143.90;100.00;75416.19;4921499;28;101836;-73
2024/03/22 10:13:37;;;;;;;;;41.50;32.75;;;;;-143.90;100.00;75428.59;4914373;28;101816;-72
2024/03/22 10:16:03;;;;;;;;;30.50;25.25;;;;;-143.90;100.00;75389.31;4902063;28;103015;-73
2024/03/22 10:18:28;;;;;;;;;36.25;30.00;;;;;-143.90;100.00;75418.25;4902936;28;101648;-74
2024/03/22 10:21:02;;;;;;;;;36.75;29.50;;;;;-143.90;100.00;75374.84;4913810;28;101904;-73
2024/03/22 10:23:29;;;;;;;;;31.00;26.50;;;;;-143.90;100.00;75364.50;4922331;28;102148;-73
2024/03/22 10:25:56;;;;;;;;;24.50;19.25;;;;;-143.90;100.00;75321.06;4919171;28;103976;-71
2024/03/22 10:28:22;;;;;;;;;39.00;30.00;;;;;-143.90;100.00;75354.16;4908392;28;103200;-73
2024/03/22 10:30:50;;;;;;;;;36.50;31.25;;;;;-143.90;100.00;75358.28;4915284;28;103374;-73
2024/03/22 10:33:18;;;;;;;;;34.50;29.00;;;;;-143.90;100.00;75337.63;4912877;28;101641;-72
2024/03/22 10:35:44;;;;;;;;;33.25;29.75;;;;;-143.90;100.00;75312.81;4911901;28;104561;-72
2024/03/22 10:38:12;;;;;;;;;26.25;20.25;;;;;-143.90;100.00;75300.41;4895990;28;101906;-73
2024/03/22 10:40:46;;;;;;;;;20.75;16.00;;;;;-143.90;100.00;75238.38;4895093;28;102518;-73
2024/03/22 10:43:13;;;;;;;;;16.50;13.25;;;;;-143.90;100.00;75230.09;4918514;28;102572;-73
2024/03/22 10:45:40;;;;;;;;;16.50;15.25;;;;;-143.90;100.00;75234.25;4915050;28;102429;-72